sensor_id;sensor_type;location;lat;lon;timestamp;P1;durP1;ratioP1;P2;durP2;ratioP2
75520;SDS011;64102;48.628;9.002;2023-12-14T00:00:36;1.65;;;0.00;;
75520;SDS011;64102;48.628;9.002;2023-12-14T00:03:01;1.87;;;0.00;;
75520;SDS011;64102;48.628;9.002;2023-12-14T00:05:26;2.00;;;0.00;;
75520;SDS011;64102;48.628;9.002;2023-12-14T00:07:52;1.95;;;0.10;;
75520;SDS011;64102;48.628;9.002;2023-12-14T00:10:17;2.27;;;0.10;;
75520;SDS011;64102;48.628;9.002;2023-12-14T00:12:43;3.53;;;0.10;;
75520;SDS011;64102;48.628;9.002;2023-12-14T00:15:08;2.35;;;0.05;;
75520;SDS011;64102;48.628;9.002;2023-12-14T00:17:34;1.42;;;0.00;;
75520;SDS011;64102;48.628;9.002;2023-12-14T00:19:59;3.70;;;0.10;;
75520;SDS011;64102;48.628;9.002;2023-12-14T00:22:25;2.47;;;0.10;;
75520;SDS011;64102;48.628;9.002;2023-12-14T00:24:50;2.60;;;0.10;;
75520;SDS011;64102;48.628;9.002;2023-12-14T00:27:15;1.60;;;0.10;;
75520;SDS011;64102;48.628;9.002;2023-12-14T00:29:41;2.78;;;0.10;;
75520;SDS011;64102;48.628;9.002;2023-12-14T00:32:07;3.37;;;0.10;;
75520;SDS011;64102;48.628;9.002;2023-12-14T00:34:32;2.27;;;0.20;;
75520;SDS011;64102;48.628;9.002;2023-12-14T00:36:57;3.50;;;0.10;;
75520;SDS011;64102;48.628;9.002;2023-12-14T00:39:22;3.13;;;0.10;;
75520;SDS011;64102;48.628;9.002;2023-12-14T00:41:48;3.40;;;0.10;;
75520;SDS011;64102;48.628;9.002;2023-12-14T00:44:13;1.57;;;0.07;;
75520;SDS011;64102;48.628;9.002;2023-12-14T00:46:38;3.63;;;0.10;;
75520;SDS011;64102;48.628;9.002;2023-12-14T00:49:04;1.87;;;0.10;;
75520;SDS011;64102;48.628;9.002;2023-12-14T00:51:29;1.73;;;0.03;;
75520;SDS011;64102;48.628;9.002;2023-12-14T00:53:55;5.85;;;0.20;;
75520;SDS011;64102;48.628;9.002;2023-12-14T00:56:20;2.17;;;0.10;;
75520;SDS011;64102;48.628;9.002;2023-12-14T00:58:45;2.03;;;0.10;;
75520;SDS011;64102;48.628;9.002;2023-12-14T01:01:11;1.88;;;0.10;;
75520;SDS011;64102;48.628;9.002;2023-12-14T01:03:36;3.63;;;0.10;;
75520;SDS011;64102;48.628;9.002;2023-12-14T01:06:01;2.70;;;0.00;;
75520;SDS011;64102;48.628;9.002;2023-12-14T01:08:27;3.65;;;0.10;;
75520;SDS011;64102;48.628;9.002;2023-12-14T01:10:52;0.47;;;0.00;;
75520;SDS011;64102;48.628;9.002;2023-12-14T01:13:17;2.37;;;0.10;;
75520;SDS011;64102;48.628;9.002;2023-12-14T01:15:43;2.13;;;0.10;;
75520;SDS011;64102;48.628;9.002;2023-12-14T01:18:08;4.78;;;0.17;;
75520;SDS011;64102;48.628;9.002;2023-12-14T01:20:33;3.90;;;0.20;;
75520;SDS011;64102;48.628;9.002;2023-12-14T01:22:59;3.80;;;0.20;;
75520;SDS011;64102;48.628;9.002;2023-12-14T01:25:24;4.13;;;0.27;;
75520;SDS011;64102;48.628;9.002;2023-12-14T01:27:49;4.77;;;0.33;;
75520;SDS011;64102;48.628;9.002;2023-12-14T01:30:15;4.63;;;0.40;;
75520;SDS011;64102;48.628;9.002;2023-12-14T01:32:40;4.37;;;0.27;;
75520;SDS011;64102;48.628;9.002;2023-12-14T01:35:05;5.00;;;0.33;;
75520;SDS011;64102;48.628;9.002;2023-12-14T01:37:31;7.55;;;0.47;;
75520;SDS011;64102;48.628;9.002;2023-12-14T01:39:56;6.43;;;0.83;;
75520;SDS011;64102;48.628;9.002;2023-12-14T01:42:22;6.43;;;0.52;;
75520;SDS011;64102;48.628;9.002;2023-12-14T01:44:47;6.07;;;0.60;;
75520;SDS011;64102;48.628;9.002;2023-12-14T01:47:12;6.37;;;0.57;;
75520;SDS011;64102;48.628;9.002;2023-12-14T01:49:37;7.00;;;0.47;;
75520;SDS011;64102;48.628;9.002;2023-12-14T01:52:04;7.70;;;0.52;;
75520;SDS011;64102;48.628;9.002;2023-12-14T01:54:29;9.75;;;0.65;;
75520;SDS011;64102;48.628;9.002;2023-12-14T01:56:54;6.90;;;0.70;;
75520;SDS011;64102;48.628;9.002;2023-12-14T01:59:20;6.00;;;0.57;;
75520;SDS011;64102;48.628;9.002;2023-12-14T02:01:46;4.68;;;0.38;;
75520;SDS011;64102;48.628;9.002;2023-12-14T02:04:17;5.05;;;0.40;;
75520;SDS011;64102;48.628;9.002;2023-12-14T02:06:42;5.00;;;0.50;;
75520;SDS011;64102;48.628;9.002;2023-12-14T02:09:07;5.50;;;0.50;;
75520;SDS011;64102;48.628;9.002;2023-12-14T02:11:33;7.97;;;0.80;;
75520;SDS011;64102;48.628;9.002;2023-12-14T02:14:02;6.97;;;0.70;;
75520;SDS011;64102;48.628;9.002;2023-12-14T02:16:31;7.85;;;0.80;;
75520;SDS011;64102;48.628;9.002;2023-12-14T02:18:57;9.55;;;1.20;;
75520;SDS011;64102;48.628;9.002;2023-12-14T02:21:22;7.93;;;0.93;;
75520;SDS011;64102;48.628;9.002;2023-12-14T02:23:48;8.00;;;0.97;;
75520;SDS011;64102;48.628;9.002;2023-12-14T02:26:13;7.97;;;1.20;;
75520;SDS011;64102;48.628;9.002;2023-12-14T02:28:38;10.40;;;1.25;;
75520;SDS011;64102;48.628;9.002;2023-12-14T02:31:04;8.57;;;0.95;;
75520;SDS011;64102;48.628;9.002;2023-12-14T02:33:29;9.38;;;1.13;;
75520;SDS011;64102;48.628;9.002;2023-12-14T02:35:55;7.68;;;0.90;;
75520;SDS011;64102;48.628;9.002;2023-12-14T02:38:20;7.97;;;1.13;;
75520;SDS011;64102;48.628;9.002;2023-12-14T02:40:46;7.33;;;0.70;;
75520;SDS011;64102;48.628;9.002;2023-12-14T02:43:12;9.05;;;1.20;;
75520;SDS011;64102;48.628;9.002;2023-12-14T02:45:37;11.50;;;1.65;;
75520;SDS011;64102;48.628;9.002;2023-12-14T02:48:03;7.82;;;1.17;;
75520;SDS011;64102;48.628;9.002;2023-12-14T02:50:28;10.10;;;1.45;;
75520;SDS011;64102;48.628;9.002;2023-12-14T02:52:54;9.17;;;1.20;;
75520;SDS011;64102;48.628;9.002;2023-12-14T02:55:19;9.90;;;1.33;;
75520;SDS011;64102;48.628;9.002;2023-12-14T02:57:44;11.73;;;1.40;;
75520;SDS011;64102;48.628;9.002;2023-12-14T03:00:10;7.78;;;0.95;;
75520;SDS011;64102;48.628;9.002;2023-12-14T03:02:36;7.70;;;1.05;;
75520;SDS011;64102;48.628;9.002;2023-12-14T03:05:02;9.60;;;1.70;;
75520;SDS011;64102;48.628;9.002;2023-12-14T03:07:28;9.95;;;1.55;;
75520;SDS011;64102;48.628;9.002;2023-12-14T03:09:53;9.90;;;1.20;;
75520;SDS011;64102;48.628;9.002;2023-12-14T03:12:18;8.90;;;1.23;;
75520;SDS011;64102;48.628;9.002;2023-12-14T03:14:44;8.27;;;0.77;;
75520;SDS011;64102;48.628;9.002;2023-12-14T03:17:09;9.30;;;1.52;;
75520;SDS011;64102;48.628;9.002;2023-12-14T03:19:40;9.18;;;1.50;;
75520;SDS011;64102;48.628;9.002;2023-12-14T03:22:06;9.15;;;1.73;;
75520;SDS011;64102;48.628;9.002;2023-12-14T03:24:32;10.13;;;1.73;;
75520;SDS011;64102;48.628;9.002;2023-12-14T03:26:57;12.47;;;1.90;;
75520;SDS011;64102;48.628;9.002;2023-12-14T03:29:23;9.35;;;1.27;;
75520;SDS011;64102;48.628;9.002;2023-12-14T03:31:48;10.33;;;1.47;;
75520;SDS011;64102;48.628;9.002;2023-12-14T03:34:13;11.90;;;1.67;;
75520;SDS011;64102;48.628;9.002;2023-12-14T03:36:39;12.30;;;1.73;;
75520;SDS011;64102;48.628;9.002;2023-12-14T03:39:04;12.45;;;1.75;;
75520;SDS011;64102;48.628;9.002;2023-12-14T03:41:30;9.80;;;1.83;;
75520;SDS011;64102;48.628;9.002;2023-12-14T03:43:56;10.52;;;2.08;;
75520;SDS011;64102;48.628;9.002;2023-12-14T03:46:22;11.02;;;1.95;;
75520;SDS011;64102;48.628;9.002;2023-12-14T03:48:47;9.73;;;1.70;;
75520;SDS011;64102;48.628;9.002;2023-12-14T03:51:12;11.47;;;1.80;;
75520;SDS011;64102;48.628;9.002;2023-12-14T03:53:38;10.90;;;1.73;;
75520;SDS011;64102;48.628;9.002;2023-12-14T03:56:04;11.23;;;1.80;;
75520;SDS011;64102;48.628;9.002;2023-12-14T03:58:30;11.73;;;1.77;;
75520;SDS011;64102;48.628;9.002;2023-12-14T04:00:55;10.93;;;1.90;;
75520;SDS011;64102;48.628;9.002;2023-12-14T04:03:20;11.97;;;1.93;;
75520;SDS011;64102;48.628;9.002;2023-12-14T04:05:46;12.13;;;2.17;;
75520;SDS011;64102;48.628;9.002;2023-12-14T04:08:11;12.00;;;1.80;;
75520;SDS011;64102;48.628;9.002;2023-12-14T04:10:36;10.70;;;1.57;;
75520;SDS011;64102;48.628;9.002;2023-12-14T04:13:02;10.70;;;1.77;;
75520;SDS011;64102;48.628;9.002;2023-12-14T04:15:27;10.68;;;1.55;;
75520;SDS011;64102;48.628;9.002;2023-12-14T04:17:53;11.70;;;1.88;;
75520;SDS011;64102;48.628;9.002;2023-12-14T04:20:18;10.07;;;1.47;;
75520;SDS011;64102;48.628;9.002;2023-12-14T04:22:43;11.30;;;1.47;;
75520;SDS011;64102;48.628;9.002;2023-12-14T04:25:09;10.88;;;1.85;;
75520;SDS011;64102;48.628;9.002;2023-12-14T04:27:35;11.43;;;1.87;;
75520;SDS011;64102;48.628;9.002;2023-12-14T04:30:00;10.30;;;1.63;;
75520;SDS011;64102;48.628;9.002;2023-12-14T04:32:25;9.10;;;1.50;;
75520;SDS011;64102;48.628;9.002;2023-12-14T04:34:51;11.32;;;1.73;;
75520;SDS011;64102;48.628;9.002;2023-12-14T04:37:17;9.80;;;1.27;;
75520;SDS011;64102;48.628;9.002;2023-12-14T04:39:42;11.52;;;1.67;;
75520;SDS011;64102;48.628;9.002;2023-12-14T04:42:08;9.80;;;1.23;;
75520;SDS011;64102;48.628;9.002;2023-12-14T04:44:33;9.27;;;1.60;;
75520;SDS011;64102;48.628;9.002;2023-12-14T04:46:59;9.18;;;1.42;;
75520;SDS011;64102;48.628;9.002;2023-12-14T04:49:24;12.67;;;2.83;;
75520;SDS011;64102;48.628;9.002;2023-12-14T04:51:49;12.27;;;2.73;;
75520;SDS011;64102;48.628;9.002;2023-12-14T04:54:15;10.83;;;1.80;;
75520;SDS011;64102;48.628;9.002;2023-12-14T04:56:40;9.40;;;1.33;;
75520;SDS011;64102;48.628;9.002;2023-12-14T04:59:06;9.43;;;1.50;;
75520;SDS011;64102;48.628;9.002;2023-12-14T05:01:32;10.32;;;1.08;;
75520;SDS011;64102;48.628;9.002;2023-12-14T05:03:57;10.38;;;1.48;;
75520;SDS011;64102;48.628;9.002;2023-12-14T05:06:22;13.03;;;3.33;;
75520;SDS011;64102;48.628;9.002;2023-12-14T05:08:48;18.73;;;5.78;;
75520;SDS011;64102;48.628;9.002;2023-12-14T05:11:13;12.77;;;2.90;;
75520;SDS011;64102;48.628;9.002;2023-12-14T05:13:39;10.05;;;1.48;;
75520;SDS011;64102;48.628;9.002;2023-12-14T05:16:05;11.93;;;1.55;;
75520;SDS011;64102;48.628;9.002;2023-12-14T05:18:31;9.82;;;1.40;;
75520;SDS011;64102;48.628;9.002;2023-12-14T05:20:56;9.63;;;1.25;;
75520;SDS011;64102;48.628;9.002;2023-12-14T05:23:22;10.98;;;1.40;;
75520;SDS011;64102;48.628;9.002;2023-12-14T05:25:48;13.13;;;1.80;;
75520;SDS011;64102;48.628;9.002;2023-12-14T05:28:14;10.05;;;1.38;;
75520;SDS011;64102;48.628;9.002;2023-12-14T05:30:39;12.13;;;2.40;;
75520;SDS011;64102;48.628;9.002;2023-12-14T05:33:05;10.67;;;2.13;;
75520;SDS011;64102;48.628;9.002;2023-12-14T05:35:30;12.10;;;2.17;;
75520;SDS011;64102;48.628;9.002;2023-12-14T05:37:55;11.17;;;2.13;;
75520;SDS011;64102;48.628;9.002;2023-12-14T05:40:21;9.40;;;1.67;;
75520;SDS011;64102;48.628;9.002;2023-12-14T05:42:46;10.53;;;1.77;;
75520;SDS011;64102;48.628;9.002;2023-12-14T05:45:11;12.83;;;2.03;;
75520;SDS011;64102;48.628;9.002;2023-12-14T05:47:37;9.80;;;1.58;;
75520;SDS011;64102;48.628;9.002;2023-12-14T05:50:03;10.63;;;2.10;;
75520;SDS011;64102;48.628;9.002;2023-12-14T05:52:29;10.43;;;2.22;;
75520;SDS011;64102;48.628;9.002;2023-12-14T05:54:56;11.60;;;2.30;;
75520;SDS011;64102;48.628;9.002;2023-12-14T05:57:22;11.47;;;1.90;;
75520;SDS011;64102;48.628;9.002;2023-12-14T05:59:47;14.27;;;2.08;;
75520;SDS011;64102;48.628;9.002;2023-12-14T06:02:15;12.63;;;2.72;;
75520;SDS011;64102;48.628;9.002;2023-12-14T06:04:40;10.85;;;1.90;;
75520;SDS011;64102;48.628;9.002;2023-12-14T06:07:05;12.30;;;1.63;;
75520;SDS011;64102;48.628;9.002;2023-12-14T06:09:31;8.18;;;0.98;;
75520;SDS011;64102;48.628;9.002;2023-12-14T06:11:59;9.20;;;1.50;;
75520;SDS011;64102;48.628;9.002;2023-12-14T06:14:27;9.80;;;1.10;;
75520;SDS011;64102;48.628;9.002;2023-12-14T06:16:53;8.20;;;0.60;;
75520;SDS011;64102;48.628;9.002;2023-12-14T06:19:18;7.70;;;0.65;;
75520;SDS011;64102;48.628;9.002;2023-12-14T06:21:44;6.77;;;0.40;;
75520;SDS011;64102;48.628;9.002;2023-12-14T06:24:09;6.30;;;0.40;;
75520;SDS011;64102;48.628;9.002;2023-12-14T06:26:34;5.28;;;0.40;;
75520;SDS011;64102;48.628;9.002;2023-12-14T06:29:00;6.25;;;0.50;;
75520;SDS011;64102;48.628;9.002;2023-12-14T06:31:25;6.05;;;0.55;;
75520;SDS011;64102;48.628;9.002;2023-12-14T06:33:51;6.73;;;0.47;;
75520;SDS011;64102;48.628;9.002;2023-12-14T06:36:16;4.50;;;0.57;;
75520;SDS011;64102;48.628;9.002;2023-12-14T06:38:45;5.07;;;0.35;;
75520;SDS011;64102;48.628;9.002;2023-12-14T06:41:22;7.43;;;0.60;;
75520;SDS011;64102;48.628;9.002;2023-12-14T06:43:49;7.80;;;1.00;;
75520;SDS011;64102;48.628;9.002;2023-12-14T06:46:14;8.20;;;0.70;;
75520;SDS011;64102;48.628;9.002;2023-12-14T06:48:40;6.35;;;0.68;;
75520;SDS011;64102;48.628;9.002;2023-12-14T06:51:06;6.13;;;0.60;;
75520;SDS011;64102;48.628;9.002;2023-12-14T06:53:31;8.50;;;1.27;;
75520;SDS011;64102;48.628;9.002;2023-12-14T06:55:56;6.60;;;1.07;;
75520;SDS011;64102;48.628;9.002;2023-12-14T06:58:22;9.87;;;2.47;;
75520;SDS011;64102;48.628;9.002;2023-12-14T07:00:47;8.57;;;1.30;;
75520;SDS011;64102;48.628;9.002;2023-12-14T07:03:13;10.50;;;2.08;;
75520;SDS011;64102;48.628;9.002;2023-12-14T07:05:38;11.10;;;2.63;;
75520;SDS011;64102;48.628;9.002;2023-12-14T07:08:04;7.72;;;0.90;;
75520;SDS011;64102;48.628;9.002;2023-12-14T07:10:29;6.63;;;0.40;;
75520;SDS011;64102;48.628;9.002;2023-12-14T07:12:55;6.78;;;0.30;;
75520;SDS011;64102;48.628;9.002;2023-12-14T07:15:20;4.17;;;0.20;;
75520;SDS011;64102;48.628;9.002;2023-12-14T07:17:46;2.67;;;0.20;;
75520;SDS011;64102;48.628;9.002;2023-12-14T07:20:11;5.93;;;0.30;;
75520;SDS011;64102;48.628;9.002;2023-12-14T07:22:37;5.25;;;0.40;;
75520;SDS011;64102;48.628;9.002;2023-12-14T07:25:03;4.73;;;0.50;;
75520;SDS011;64102;48.628;9.002;2023-12-14T07:27:28;7.88;;;0.47;;
75520;SDS011;64102;48.628;9.002;2023-12-14T07:29:54;7.45;;;0.60;;
75520;SDS011;64102;48.628;9.002;2023-12-14T07:32:19;5.43;;;0.53;;
75520;SDS011;64102;48.628;9.002;2023-12-14T07:34:44;4.40;;;0.30;;
75520;SDS011;64102;48.628;9.002;2023-12-14T07:37:10;3.83;;;0.30;;
75520;SDS011;64102;48.628;9.002;2023-12-14T07:39:36;4.07;;;0.20;;
75520;SDS011;64102;48.628;9.002;2023-12-14T07:42:02;3.95;;;0.38;;
75520;SDS011;64102;48.628;9.002;2023-12-14T07:44:27;5.20;;;0.30;;
75520;SDS011;64102;48.628;9.002;2023-12-14T07:46:55;4.15;;;0.30;;
75520;SDS011;64102;48.628;9.002;2023-12-14T07:49:21;4.50;;;0.22;;
75520;SDS011;64102;48.628;9.002;2023-12-14T07:51:48;3.42;;;0.20;;
75520;SDS011;64102;48.628;9.002;2023-12-14T07:54:14;5.05;;;0.30;;
75520;SDS011;64102;48.628;9.002;2023-12-14T07:56:39;3.35;;;0.13;;
75520;SDS011;64102;48.628;9.002;2023-12-14T07:59:05;5.35;;;0.30;;
75520;SDS011;64102;48.628;9.002;2023-12-14T08:01:32;4.97;;;0.57;;
75520;SDS011;64102;48.628;9.002;2023-12-14T08:03:58;10.63;;;1.08;;
75520;SDS011;64102;48.628;9.002;2023-12-14T08:06:23;5.53;;;0.43;;
75520;SDS011;64102;48.628;9.002;2023-12-14T08:08:49;5.53;;;0.40;;
75520;SDS011;64102;48.628;9.002;2023-12-14T08:11:14;6.83;;;0.40;;
75520;SDS011;64102;48.628;9.002;2023-12-14T08:13:40;11.30;;;2.42;;
75520;SDS011;64102;48.628;9.002;2023-12-14T08:16:05;7.03;;;0.70;;
75520;SDS011;64102;48.628;9.002;2023-12-14T08:18:32;6.28;;;0.60;;
75520;SDS011;64102;48.628;9.002;2023-12-14T08:20:57;6.57;;;0.40;;
75520;SDS011;64102;48.628;9.002;2023-12-14T08:23:23;6.80;;;0.50;;
75520;SDS011;64102;48.628;9.002;2023-12-14T08:25:49;5.18;;;0.40;;
75520;SDS011;64102;48.628;9.002;2023-12-14T08:28:14;6.63;;;0.40;;
75520;SDS011;64102;48.628;9.002;2023-12-14T08:30:40;6.40;;;0.50;;
75520;SDS011;64102;48.628;9.002;2023-12-14T08:33:05;8.17;;;0.50;;
75520;SDS011;64102;48.628;9.002;2023-12-14T08:35:30;6.20;;;0.40;;
75520;SDS011;64102;48.628;9.002;2023-12-14T08:37:55;7.27;;;0.50;;
75520;SDS011;64102;48.628;9.002;2023-12-14T08:40:21;3.23;;;0.20;;
75520;SDS011;64102;48.628;9.002;2023-12-14T08:42:46;7.83;;;0.67;;
75520;SDS011;64102;48.628;9.002;2023-12-14T08:45:12;5.85;;;0.50;;
75520;SDS011;64102;48.628;9.002;2023-12-14T08:47:37;6.60;;;0.40;;
75520;SDS011;64102;48.628;9.002;2023-12-14T08:50:04;9.25;;;1.30;;
75520;SDS011;64102;48.628;9.002;2023-12-14T08:52:30;8.35;;;1.20;;
75520;SDS011;64102;48.628;9.002;2023-12-14T08:54:55;6.43;;;0.47;;
75520;SDS011;64102;48.628;9.002;2023-12-14T08:57:20;9.30;;;1.20;;
75520;SDS011;64102;48.628;9.002;2023-12-14T08:59:46;10.55;;;1.52;;
75520;SDS011;64102;48.628;9.002;2023-12-14T09:02:11;8.10;;;1.07;;
75520;SDS011;64102;48.628;9.002;2023-12-14T09:04:37;8.90;;;1.10;;
75520;SDS011;64102;48.628;9.002;2023-12-14T09:07:03;8.85;;;1.20;;
75520;SDS011;64102;48.628;9.002;2023-12-14T09:09:29;9.57;;;1.17;;
75520;SDS011;64102;48.628;9.002;2023-12-14T09:11:54;7.57;;;0.80;;
75520;SDS011;64102;48.628;9.002;2023-12-14T09:14:20;8.73;;;1.20;;
75520;SDS011;64102;48.628;9.002;2023-12-14T09:16:45;6.47;;;0.70;;
75520;SDS011;64102;48.628;9.002;2023-12-14T09:19:11;6.85;;;0.43;;
75520;SDS011;64102;48.628;9.002;2023-12-14T09:21:36;6.53;;;0.57;;
75520;SDS011;64102;48.628;9.002;2023-12-14T09:24:02;6.00;;;0.60;;
75520;SDS011;64102;48.628;9.002;2023-12-14T09:26:28;7.65;;;0.60;;
75520;SDS011;64102;48.628;9.002;2023-12-14T09:28:53;7.43;;;0.60;;
75520;SDS011;64102;48.628;9.002;2023-12-14T09:31:18;8.15;;;0.60;;
75520;SDS011;64102;48.628;9.002;2023-12-14T09:33:44;6.88;;;0.50;;
75520;SDS011;64102;48.628;9.002;2023-12-14T09:36:10;7.30;;;0.57;;
75520;SDS011;64102;48.628;9.002;2023-12-14T09:38:35;6.70;;;0.67;;
75520;SDS011;64102;48.628;9.002;2023-12-14T09:41:01;5.55;;;0.45;;
75520;SDS011;64102;48.628;9.002;2023-12-14T09:43:27;10.00;;;0.80;;
75520;SDS011;64102;48.628;9.002;2023-12-14T09:45:53;8.65;;;0.98;;
75520;SDS011;64102;48.628;9.002;2023-12-14T09:48:20;8.45;;;0.60;;
75520;SDS011;64102;48.628;9.002;2023-12-14T09:50:46;6.60;;;0.77;;
75520;SDS011;64102;48.628;9.002;2023-12-14T09:53:11;9.07;;;0.80;;
75520;SDS011;64102;48.628;9.002;2023-12-14T09:55:37;7.57;;;0.60;;
75520;SDS011;64102;48.628;9.002;2023-12-14T09:58:02;6.85;;;0.60;;
75520;SDS011;64102;48.628;9.002;2023-12-14T10:00:37;6.78;;;0.70;;
75520;SDS011;64102;48.628;9.002;2023-12-14T10:03:17;8.38;;;0.80;;
75520;SDS011;64102;48.628;9.002;2023-12-14T10:05:51;8.77;;;0.80;;
75520;SDS011;64102;48.628;9.002;2023-12-14T10:08:17;6.60;;;0.70;;
75520;SDS011;64102;48.628;9.002;2023-12-14T10:10:42;7.90;;;0.65;;
75520;SDS011;64102;48.628;9.002;2023-12-14T10:13:08;6.68;;;0.60;;
75520;SDS011;64102;48.628;9.002;2023-12-14T10:15:47;5.38;;;0.40;;
75520;SDS011;64102;48.628;9.002;2023-12-14T10:18:22;6.57;;;0.60;;
75520;SDS011;64102;48.628;9.002;2023-12-14T10:20:52;6.35;;;0.68;;
75520;SDS011;64102;48.628;9.002;2023-12-14T10:23:18;8.43;;;0.50;;
75520;SDS011;64102;48.628;9.002;2023-12-14T10:25:44;6.40;;;0.80;;
75520;SDS011;64102;48.628;9.002;2023-12-14T10:28:13;5.93;;;0.52;;
75520;SDS011;64102;48.628;9.002;2023-12-14T10:30:39;6.63;;;0.93;;
75520;SDS011;64102;48.628;9.002;2023-12-14T10:33:06;5.50;;;0.40;;
75520;SDS011;64102;48.628;9.002;2023-12-14T10:35:32;6.53;;;0.52;;
75520;SDS011;64102;48.628;9.002;2023-12-14T10:37:58;5.07;;;0.30;;
75520;SDS011;64102;48.628;9.002;2023-12-14T10:42:53;6.70;;;0.40;;
75520;SDS011;64102;48.628;9.002;2023-12-14T10:45:22;4.00;;;0.22;;
75520;SDS011;64102;48.628;9.002;2023-12-14T10:47:52;4.55;;;0.30;;
75520;SDS011;64102;48.628;9.002;2023-12-14T10:50:18;3.63;;;0.30;;
75520;SDS011;64102;48.628;9.002;2023-12-14T10:52:44;3.63;;;0.20;;
75520;SDS011;64102;48.628;9.002;2023-12-14T10:55:15;3.83;;;0.30;;
75520;SDS011;64102;48.628;9.002;2023-12-14T10:57:46;4.85;;;0.40;;
75520;SDS011;64102;48.628;9.002;2023-12-14T11:00:11;3.83;;;0.30;;
75520;SDS011;64102;48.628;9.002;2023-12-14T11:02:40;6.03;;;0.50;;
75520;SDS011;64102;48.628;9.002;2023-12-14T11:05:11;6.30;;;0.30;;
75520;SDS011;64102;48.628;9.002;2023-12-14T11:07:53;4.57;;;0.30;;
75520;SDS011;64102;48.628;9.002;2023-12-14T11:10:25;4.85;;;0.20;;
75520;SDS011;64102;48.628;9.002;2023-12-14T11:13:02;5.50;;;0.30;;
75520;SDS011;64102;48.628;9.002;2023-12-14T11:15:29;3.85;;;0.30;;
75520;SDS011;64102;48.628;9.002;2023-12-14T11:20:46;5.78;;;0.30;;
75520;SDS011;64102;48.628;9.002;2023-12-14T11:23:28;3.72;;;0.30;;
75520;SDS011;64102;48.628;9.002;2023-12-14T11:26:03;4.35;;;0.20;;
75520;SDS011;64102;48.628;9.002;2023-12-14T11:28:31;4.50;;;0.25;;
75520;SDS011;64102;48.628;9.002;2023-12-14T11:33:27;2.17;;;0.10;;
75520;SDS011;64102;48.628;9.002;2023-12-14T11:35:53;5.63;;;0.20;;
75520;SDS011;64102;48.628;9.002;2023-12-14T11:38:19;2.13;;;0.20;;
75520;SDS011;64102;48.628;9.002;2023-12-14T11:40:46;3.10;;;0.20;;
75520;SDS011;64102;48.628;9.002;2023-12-14T11:43:12;2.47;;;0.10;;
75520;SDS011;64102;48.628;9.002;2023-12-14T11:45:40;3.95;;;0.20;;
75520;SDS011;64102;48.628;9.002;2023-12-14T11:48:06;3.70;;;0.10;;
75520;SDS011;64102;48.628;9.002;2023-12-14T11:50:33;5.32;;;0.32;;
75520;SDS011;64102;48.628;9.002;2023-12-14T11:53:02;2.90;;;0.20;;
75520;SDS011;64102;48.628;9.002;2023-12-14T11:55:28;4.65;;;0.20;;
75520;SDS011;64102;48.628;9.002;2023-12-14T11:57:55;2.95;;;0.10;;
75520;SDS011;64102;48.628;9.002;2023-12-14T12:00:28;3.95;;;0.20;;
75520;SDS011;64102;48.628;9.002;2023-12-14T12:05:39;6.28;;;0.30;;
75520;SDS011;64102;48.628;9.002;2023-12-14T12:08:10;5.05;;;0.40;;
75520;SDS011;64102;48.628;9.002;2023-12-14T12:10:36;3.83;;;0.20;;
75520;SDS011;64102;48.628;9.002;2023-12-14T12:13:02;4.82;;;0.20;;
75520;SDS011;64102;48.628;9.002;2023-12-14T12:15:32;2.63;;;0.20;;
75520;SDS011;64102;48.628;9.002;2023-12-14T12:18:00;4.18;;;0.20;;
75520;SDS011;64102;48.628;9.002;2023-12-14T12:20:30;3.20;;;0.20;;
75520;SDS011;64102;48.628;9.002;2023-12-14T12:22:55;5.27;;;0.30;;
75520;SDS011;64102;48.628;9.002;2023-12-14T12:25:21;6.00;;;0.20;;
75520;SDS011;64102;48.628;9.002;2023-12-14T12:27:47;5.15;;;0.35;;
75520;SDS011;64102;48.628;9.002;2023-12-14T12:30:13;4.53;;;0.30;;
75520;SDS011;64102;48.628;9.002;2023-12-14T12:32:39;5.15;;;0.40;;
75520;SDS011;64102;48.628;9.002;2023-12-14T12:35:05;5.75;;;0.30;;
75520;SDS011;64102;48.628;9.002;2023-12-14T12:37:31;4.85;;;0.57;;
75520;SDS011;64102;48.628;9.002;2023-12-14T12:39:56;5.60;;;0.50;;
75520;SDS011;64102;48.628;9.002;2023-12-14T12:42:21;6.30;;;0.50;;
75520;SDS011;64102;48.628;9.002;2023-12-14T12:44:47;7.20;;;0.73;;
75520;SDS011;64102;48.628;9.002;2023-12-14T12:47:12;6.20;;;0.80;;
75520;SDS011;64102;48.628;9.002;2023-12-14T12:49:38;6.05;;;0.40;;
75520;SDS011;64102;48.628;9.002;2023-12-14T12:52:03;5.22;;;0.40;;
75520;SDS011;64102;48.628;9.002;2023-12-14T12:54:30;6.50;;;0.50;;
75520;SDS011;64102;48.628;9.002;2023-12-14T12:56:56;4.50;;;0.40;;
75520;SDS011;64102;48.628;9.002;2023-12-14T12:59:21;5.37;;;0.30;;
75520;SDS011;64102;48.628;9.002;2023-12-14T13:01:47;5.72;;;0.40;;
75520;SDS011;64102;48.628;9.002;2023-12-14T13:04:19;9.00;;;0.70;;
75520;SDS011;64102;48.628;9.002;2023-12-14T13:06:46;6.18;;;0.68;;
75520;SDS011;64102;48.628;9.002;2023-12-14T13:09:13;6.28;;;0.50;;
75520;SDS011;64102;48.628;9.002;2023-12-14T13:11:39;7.50;;;0.70;;
75520;SDS011;64102;48.628;9.002;2023-12-14T13:14:04;7.05;;;0.70;;
75520;SDS011;64102;48.628;9.002;2023-12-14T13:16:32;7.57;;;0.75;;
75520;SDS011;64102;48.628;9.002;2023-12-14T13:18:59;5.50;;;0.55;;
75520;SDS011;64102;48.628;9.002;2023-12-14T13:21:24;5.60;;;0.40;;
75520;SDS011;64102;48.628;9.002;2023-12-14T13:23:49;4.37;;;0.20;;
75520;SDS011;64102;48.628;9.002;2023-12-14T13:26:16;3.47;;;0.20;;
75520;SDS011;64102;48.628;9.002;2023-12-14T13:28:41;4.80;;;0.30;;
75520;SDS011;64102;48.628;9.002;2023-12-14T13:31:06;14.90;;;3.03;;
75520;SDS011;64102;48.628;9.002;2023-12-14T13:33:32;9.43;;;1.70;;
75520;SDS011;64102;48.628;9.002;2023-12-14T13:35:57;6.20;;;0.50;;
75520;SDS011;64102;48.628;9.002;2023-12-14T13:38:22;5.73;;;0.50;;
75520;SDS011;64102;48.628;9.002;2023-12-14T13:40:48;6.97;;;0.60;;
75520;SDS011;64102;48.628;9.002;2023-12-14T13:43:13;4.80;;;0.30;;
75520;SDS011;64102;48.628;9.002;2023-12-14T13:45:39;6.53;;;0.60;;
75520;SDS011;64102;48.628;9.002;2023-12-14T13:48:06;5.18;;;0.40;;
75520;SDS011;64102;48.628;9.002;2023-12-14T13:50:32;4.65;;;0.40;;
75520;SDS011;64102;48.628;9.002;2023-12-14T13:52:57;3.55;;;0.20;;
75520;SDS011;64102;48.628;9.002;2023-12-14T13:55:23;4.13;;;0.30;;
75520;SDS011;64102;48.628;9.002;2023-12-14T13:57:48;3.20;;;0.10;;
75520;SDS011;64102;48.628;9.002;2023-12-14T14:00:14;2.63;;;0.10;;
75520;SDS011;64102;48.628;9.002;2023-12-14T14:02:41;3.45;;;0.10;;
75520;SDS011;64102;48.628;9.002;2023-12-14T14:05:06;1.83;;;0.07;;
75520;SDS011;64102;48.628;9.002;2023-12-14T14:07:31;2.70;;;0.20;;
75520;SDS011;64102;48.628;9.002;2023-12-14T14:09:57;3.90;;;0.20;;
75520;SDS011;64102;48.628;9.002;2023-12-14T14:12:22;3.63;;;0.27;;
75520;SDS011;64102;48.628;9.002;2023-12-14T14:14:47;4.05;;;0.20;;
75520;SDS011;64102;48.628;9.002;2023-12-14T14:17:13;5.83;;;0.20;;
75520;SDS011;64102;48.628;9.002;2023-12-14T14:19:38;3.33;;;0.17;;
75520;SDS011;64102;48.628;9.002;2023-12-14T14:22:03;4.63;;;0.30;;
75520;SDS011;64102;48.628;9.002;2023-12-14T14:24:29;5.82;;;0.40;;
75520;SDS011;64102;48.628;9.002;2023-12-14T14:26:56;6.65;;;0.30;;
75520;SDS011;64102;48.628;9.002;2023-12-14T14:29:21;6.03;;;0.40;;
75520;SDS011;64102;48.628;9.002;2023-12-14T14:31:47;5.87;;;0.50;;
75520;SDS011;64102;48.628;9.002;2023-12-14T14:34:12;7.03;;;1.10;;
75520;SDS011;64102;48.628;9.002;2023-12-14T14:36:37;6.30;;;0.50;;
75520;SDS011;64102;48.628;9.002;2023-12-14T14:39:03;9.50;;;0.55;;
75520;SDS011;64102;48.628;9.002;2023-12-14T14:41:29;6.40;;;0.60;;
75520;SDS011;64102;48.628;9.002;2023-12-14T14:43:55;7.80;;;1.03;;
75520;SDS011;64102;48.628;9.002;2023-12-14T14:46:20;8.07;;;0.77;;
75520;SDS011;64102;48.628;9.002;2023-12-14T14:48:46;7.22;;;1.10;;